Terminal Aerodrome Forecast
Issued by NWS Wilmington, OH

Current Version | Previous Version | Text Only | Print | Product List | Glossary Off
Versions: 1 2 3 4 5 6 7 8 9 10 11 12 13 14 15 16 17 18 19 20 21 22

851
FTUS41 KILN 201702 AAC
TAFCMH
TAF AMD
KCMH 201702Z 2017/2112 13003KT 1/2SM FG OVC003
     FM201800 14004KT P6SM SCT070
     FM210400 13005KT P6SM BKN200=

USA.gov is the U.S. government's official web portal to all federal, state and local government web resources and services.